sensor_id;sensor_type;location;lat;lon;timestamp;P1;durP1;ratioP1;P2;durP2;ratioP2
23728;SDS011;12045;60.214;24.724;2023-03-31T01:04:10;5.07;;;2.73;;
23728;SDS011;12045;60.214;24.724;2023-03-31T01:06:47;5.23;;;2.73;;
23728;SDS011;12045;60.214;24.724;2023-03-31T01:09:29;6.90;;;3.23;;
23728;SDS011;12045;60.214;24.724;2023-03-31T01:12:05;5.10;;;3.03;;
23728;SDS011;12045;60.214;24.724;2023-03-31T01:14:34;5.40;;;3.20;;
23728;SDS011;12045;60.214;24.724;2023-03-31T01:17:02;4.83;;;3.07;;
23728;SDS011;12045;60.214;24.724;2023-03-31T01:22:10;4.80;;;2.90;;
23728;SDS011;12045;60.214;24.724;2023-03-31T01:30:54;6.63;;;3.20;;
23728;SDS011;12045;60.214;24.724;2023-03-31T01:45:33;5.17;;;2.73;;
23728;SDS011;12045;60.214;24.724;2023-03-31T01:51:06;4.07;;;2.80;;
23728;SDS011;12045;60.214;24.724;2023-03-31T01:53:53;7.03;;;3.10;;
23728;SDS011;12045;60.214;24.724;2023-03-31T02:04:22;4.63;;;2.30;;
23728;SDS011;12045;60.214;24.724;2023-03-31T02:07:02;4.00;;;3.00;;
23728;SDS011;12045;60.214;24.724;2023-03-31T02:09:34;1.57;;;0.77;;
23728;SDS011;12045;60.214;24.724;2023-03-31T02:12:07;5.73;;;2.77;;
23728;SDS011;12045;60.214;24.724;2023-03-31T02:14:42;6.20;;;2.70;;
23728;SDS011;12045;60.214;24.724;2023-03-31T02:17:14;3.63;;;3.03;;
23728;SDS011;12045;60.214;24.724;2023-03-31T02:19:46;6.03;;;3.30;;
23728;SDS011;12045;60.214;24.724;2023-03-31T02:22:16;11.83;;;3.00;;
23728;SDS011;12045;60.214;24.724;2023-03-31T02:24:47;5.13;;;2.80;;
23728;SDS011;12045;60.214;24.724;2023-03-31T02:27:21;6.13;;;3.33;;
23728;SDS011;12045;60.214;24.724;2023-03-31T02:29:49;3.03;;;1.90;;
23728;SDS011;12045;60.214;24.724;2023-03-31T02:32:21;4.97;;;2.83;;
23728;SDS011;12045;60.214;24.724;2023-03-31T02:34:53;6.93;;;2.80;;
23728;SDS011;12045;60.214;24.724;2023-03-31T02:37:21;4.03;;;2.53;;
23728;SDS011;12045;60.214;24.724;2023-03-31T02:39:50;4.23;;;2.70;;
23728;SDS011;12045;60.214;24.724;2023-03-31T02:42:20;4.17;;;2.60;;
23728;SDS011;12045;60.214;24.724;2023-03-31T02:44:48;4.10;;;2.30;;
23728;SDS011;12045;60.214;24.724;2023-03-31T02:47:16;7.83;;;3.10;;
23728;SDS011;12045;60.214;24.724;2023-03-31T02:49:50;8.13;;;3.50;;
23728;SDS011;12045;60.214;24.724;2023-03-31T02:56:03;5.47;;;3.03;;
23728;SDS011;12045;60.214;24.724;2023-03-31T03:17:29;7.67;;;3.20;;
23728;SDS011;12045;60.214;24.724;2023-03-31T03:20:02;5.53;;;3.17;;
23728;SDS011;12045;60.214;24.724;2023-03-31T03:22:35;3.77;;;2.53;;
23728;SDS011;12045;60.214;24.724;2023-03-31T03:25:05;7.90;;;3.30;;
23728;SDS011;12045;60.214;24.724;2023-03-31T03:27:36;5.27;;;3.00;;
23728;SDS011;12045;60.214;24.724;2023-03-31T03:30:06;5.97;;;3.30;;
23728;SDS011;12045;60.214;24.724;2023-03-31T03:32:35;4.73;;;2.63;;
23728;SDS011;12045;60.214;24.724;2023-03-31T03:35:03;6.80;;;2.77;;
23728;SDS011;12045;60.214;24.724;2023-03-31T03:37:32;9.93;;;3.27;;
23728;SDS011;12045;60.214;24.724;2023-03-31T03:40:00;4.83;;;3.30;;
23728;SDS011;12045;60.214;24.724;2023-03-31T03:42:28;4.77;;;3.10;;
23728;SDS011;12045;60.214;24.724;2023-03-31T03:44:56;4.70;;;2.80;;
23728;SDS011;12045;60.214;24.724;2023-03-31T03:47:24;6.93;;;2.90;;
23728;SDS011;12045;60.214;24.724;2023-03-31T03:49:52;4.43;;;3.10;;
23728;SDS011;12045;60.214;24.724;2023-03-31T03:52:19;6.27;;;3.17;;
23728;SDS011;12045;60.214;24.724;2023-03-31T03:54:47;4.50;;;1.77;;
23728;SDS011;12045;60.214;24.724;2023-03-31T03:57:15;4.43;;;2.90;;
23728;SDS011;12045;60.214;24.724;2023-03-31T03:59:43;5.40;;;3.07;;
23728;SDS011;12045;60.214;24.724;2023-03-31T04:02:11;6.20;;;2.93;;
23728;SDS011;12045;60.214;24.724;2023-03-31T04:04:38;5.63;;;2.13;;
23728;SDS011;12045;60.214;24.724;2023-03-31T04:07:06;6.40;;;2.97;;
23728;SDS011;12045;60.214;24.724;2023-03-31T04:09:34;12.63;;;2.17;;
23728;SDS011;12045;60.214;24.724;2023-03-31T04:12:01;3.30;;;2.20;;
23728;SDS011;12045;60.214;24.724;2023-03-31T04:14:29;0.87;;;0.87;;
23728;SDS011;12045;60.214;24.724;2023-03-31T04:16:56;4.70;;;2.97;;
23728;SDS011;12045;60.214;24.724;2023-03-31T04:19:24;7.43;;;3.33;;
23728;SDS011;12045;60.214;24.724;2023-03-31T04:21:53;4.27;;;2.40;;
23728;SDS011;12045;60.214;24.724;2023-03-31T04:24:27;4.77;;;3.20;;
23728;SDS011;12045;60.214;24.724;2023-03-31T04:26:59;12.53;;;3.60;;
23728;SDS011;12045;60.214;24.724;2023-03-31T04:29:28;6.50;;;1.80;;
23728;SDS011;12045;60.214;24.724;2023-03-31T04:31:59;7.50;;;2.90;;
23728;SDS011;12045;60.214;24.724;2023-03-31T04:34:27;9.07;;;3.93;;
23728;SDS011;12045;60.214;24.724;2023-03-31T04:37:01;4.47;;;2.77;;
23728;SDS011;12045;60.214;24.724;2023-03-31T04:39:29;6.63;;;3.40;;
23728;SDS011;12045;60.214;24.724;2023-03-31T04:41:57;9.63;;;3.50;;
23728;SDS011;12045;60.214;24.724;2023-03-31T04:44:26;5.00;;;3.03;;
23728;SDS011;12045;60.214;24.724;2023-03-31T04:46:53;6.20;;;3.10;;
23728;SDS011;12045;60.214;24.724;2023-03-31T04:49:22;9.13;;;3.03;;
23728;SDS011;12045;60.214;24.724;2023-03-31T04:51:49;4.80;;;3.40;;
23728;SDS011;12045;60.214;24.724;2023-03-31T04:54:17;8.10;;;3.67;;
23728;SDS011;12045;60.214;24.724;2023-03-31T04:56:45;7.40;;;3.70;;
23728;SDS011;12045;60.214;24.724;2023-03-31T04:59:13;8.97;;;3.23;;
23728;SDS011;12045;60.214;24.724;2023-03-31T05:01:41;1.23;;;0.67;;
23728;SDS011;12045;60.214;24.724;2023-03-31T05:04:12;5.50;;;2.77;;
23728;SDS011;12045;60.214;24.724;2023-03-31T05:06:40;6.33;;;3.90;;
23728;SDS011;12045;60.214;24.724;2023-03-31T05:09:07;7.47;;;3.73;;
23728;SDS011;12045;60.214;24.724;2023-03-31T05:11:36;8.47;;;3.60;;
23728;SDS011;12045;60.214;24.724;2023-03-31T05:14:07;6.23;;;4.03;;
23728;SDS011;12045;60.214;24.724;2023-03-31T05:16:38;7.33;;;3.77;;
23728;SDS011;12045;60.214;24.724;2023-03-31T05:19:11;6.90;;;2.93;;
23728;SDS011;12045;60.214;24.724;2023-03-31T05:21:41;11.10;;;4.00;;
23728;SDS011;12045;60.214;24.724;2023-03-31T05:24:09;6.43;;;3.40;;
23728;SDS011;12045;60.214;24.724;2023-03-31T05:26:37;1.73;;;1.30;;
23728;SDS011;12045;60.214;24.724;2023-03-31T05:29:07;8.13;;;3.23;;
23728;SDS011;12045;60.214;24.724;2023-03-31T05:31:40;5.90;;;3.40;;
23728;SDS011;12045;60.214;24.724;2023-03-31T05:34:08;7.43;;;2.23;;
23728;SDS011;12045;60.214;24.724;2023-03-31T05:36:37;7.53;;;3.50;;
23728;SDS011;12045;60.214;24.724;2023-03-31T05:39:05;6.83;;;3.30;;
23728;SDS011;12045;60.214;24.724;2023-03-31T05:41:48;7.90;;;3.80;;
23728;SDS011;12045;60.214;24.724;2023-03-31T05:44:15;5.93;;;3.60;;
23728;SDS011;12045;60.214;24.724;2023-03-31T05:46:46;6.47;;;3.07;;
23728;SDS011;12045;60.214;24.724;2023-03-31T05:49:14;8.20;;;3.90;;
23728;SDS011;12045;60.214;24.724;2023-03-31T05:51:46;12.20;;;3.47;;
23728;SDS011;12045;60.214;24.724;2023-03-31T05:54:26;1.23;;;1.13;;
23728;SDS011;12045;60.214;24.724;2023-03-31T05:56:55;6.23;;;3.63;;
23728;SDS011;12045;60.214;24.724;2023-03-31T05:59:24;5.57;;;3.73;;
23728;SDS011;12045;60.214;24.724;2023-03-31T06:01:57;6.73;;;3.77;;
23728;SDS011;12045;60.214;24.724;2023-03-31T06:04:30;9.20;;;3.70;;
23728;SDS011;12045;60.214;24.724;2023-03-31T06:06:58;7.77;;;3.93;;
23728;SDS011;12045;60.214;24.724;2023-03-31T06:09:27;5.10;;;3.40;;
23728;SDS011;12045;60.214;24.724;2023-03-31T06:11:57;5.80;;;4.17;;
23728;SDS011;12045;60.214;24.724;2023-03-31T06:14:27;14.43;;;4.13;;
23728;SDS011;12045;60.214;24.724;2023-03-31T06:17:13;4.37;;;3.30;;
23728;SDS011;12045;60.214;24.724;2023-03-31T06:20:19;6.30;;;3.90;;
23728;SDS011;12045;60.214;24.724;2023-03-31T06:23:03;8.97;;;3.90;;
23728;SDS011;12045;60.214;24.724;2023-03-31T06:25:32;9.97;;;4.07;;
23728;SDS011;12045;60.214;24.724;2023-03-31T06:28:14;4.90;;;3.50;;
23728;SDS011;12045;60.214;24.724;2023-03-31T06:30:46;5.43;;;3.23;;
23728;SDS011;12045;60.214;24.724;2023-03-31T06:33:15;4.70;;;3.17;;
23728;SDS011;12045;60.214;24.724;2023-03-31T06:35:46;7.37;;;3.90;;
23728;SDS011;12045;60.214;24.724;2023-03-31T06:38:18;6.97;;;4.07;;
23728;SDS011;12045;60.214;24.724;2023-03-31T06:40:46;11.67;;;4.20;;
23728;SDS011;12045;60.214;24.724;2023-03-31T06:43:16;7.70;;;3.77;;
23728;SDS011;12045;60.214;24.724;2023-03-31T06:45:45;5.93;;;3.30;;
23728;SDS011;12045;60.214;24.724;2023-03-31T06:48:23;10.70;;;3.70;;
23728;SDS011;12045;60.214;24.724;2023-03-31T06:51:19;6.07;;;3.20;;
23728;SDS011;12045;60.214;24.724;2023-03-31T06:53:47;12.30;;;3.40;;
23728;SDS011;12045;60.214;24.724;2023-03-31T06:56:19;9.67;;;3.80;;
23728;SDS011;12045;60.214;24.724;2023-03-31T06:59:03;7.37;;;3.47;;
23728;SDS011;12045;60.214;24.724;2023-03-31T07:01:34;10.63;;;3.70;;
23728;SDS011;12045;60.214;24.724;2023-03-31T07:04:26;11.97;;;3.47;;
23728;SDS011;12045;60.214;24.724;2023-03-31T07:07:12;6.73;;;3.47;;
23728;SDS011;12045;60.214;24.724;2023-03-31T07:09:56;8.73;;;3.30;;
23728;SDS011;12045;60.214;24.724;2023-03-31T07:12:32;6.53;;;3.27;;
23728;SDS011;12045;60.214;24.724;2023-03-31T07:15:13;4.97;;;3.07;;
23728;SDS011;12045;60.214;24.724;2023-03-31T07:17:43;8.50;;;3.93;;
23728;SDS011;12045;60.214;24.724;2023-03-31T07:20:22;7.83;;;3.20;;
23728;SDS011;12045;60.214;24.724;2023-03-31T07:23:05;8.40;;;3.60;;
23728;SDS011;12045;60.214;24.724;2023-03-31T07:25:51;9.47;;;4.03;;
23728;SDS011;12045;60.214;24.724;2023-03-31T07:28:20;8.90;;;3.40;;
23728;SDS011;12045;60.214;24.724;2023-03-31T07:30:49;8.03;;;3.87;;
23728;SDS011;12045;60.214;24.724;2023-03-31T07:33:22;5.00;;;3.00;;
23728;SDS011;12045;60.214;24.724;2023-03-31T07:36:05;6.43;;;3.83;;
23728;SDS011;12045;60.214;24.724;2023-03-31T07:38:51;6.37;;;3.57;;
23728;SDS011;12045;60.214;24.724;2023-03-31T07:41:30;10.13;;;3.10;;
23728;SDS011;12045;60.214;24.724;2023-03-31T07:44:33;4.43;;;3.00;;
23728;SDS011;12045;60.214;24.724;2023-03-31T07:47:15;8.60;;;3.20;;
23728;SDS011;12045;60.214;24.724;2023-03-31T07:50:04;7.27;;;3.20;;
23728;SDS011;12045;60.214;24.724;2023-03-31T07:52:54;4.20;;;2.90;;
23728;SDS011;12045;60.214;24.724;2023-03-31T07:56:00;5.37;;;2.93;;
23728;SDS011;12045;60.214;24.724;2023-03-31T07:58:37;6.60;;;3.30;;
23728;SDS011;12045;60.214;24.724;2023-03-31T08:01:23;4.60;;;2.90;;
23728;SDS011;12045;60.214;24.724;2023-03-31T08:03:55;7.07;;;3.27;;
23728;SDS011;12045;60.214;24.724;2023-03-31T08:06:45;6.07;;;2.83;;
23728;SDS011;12045;60.214;24.724;2023-03-31T08:09:23;6.90;;;2.80;;
23728;SDS011;12045;60.214;24.724;2023-03-31T08:12:05;10.03;;;3.20;;
23728;SDS011;12045;60.214;24.724;2023-03-31T08:14:34;6.63;;;3.00;;
23728;SDS011;12045;60.214;24.724;2023-03-31T08:17:21;5.43;;;2.80;;
23728;SDS011;12045;60.214;24.724;2023-03-31T08:20:03;6.60;;;3.03;;
23728;SDS011;12045;60.214;24.724;2023-03-31T08:23:09;7.93;;;3.53;;
23728;SDS011;12045;60.214;24.724;2023-03-31T08:25:52;7.50;;;3.13;;
23728;SDS011;12045;60.214;24.724;2023-03-31T08:28:21;9.80;;;3.10;;
23728;SDS011;12045;60.214;24.724;2023-03-31T08:31:01;6.77;;;2.90;;
23728;SDS011;12045;60.214;24.724;2023-03-31T08:33:39;7.03;;;3.03;;
23728;SDS011;12045;60.214;24.724;2023-03-31T08:36:15;6.77;;;3.17;;
23728;SDS011;12045;60.214;24.724;2023-03-31T08:38:49;5.73;;;2.67;;
23728;SDS011;12045;60.214;24.724;2023-03-31T08:44:37;2.37;;;2.03;;
23728;SDS011;12045;60.214;24.724;2023-03-31T08:47:36;5.77;;;2.43;;
23728;SDS011;12045;60.214;24.724;2023-03-31T08:50:18;3.87;;;2.60;;
23728;SDS011;12045;60.214;24.724;2023-03-31T08:56:16;7.80;;;2.70;;
23728;SDS011;12045;60.214;24.724;2023-03-31T08:58:54;3.90;;;2.73;;
23728;SDS011;12045;60.214;24.724;2023-03-31T09:07:15;7.70;;;2.80;;
23728;SDS011;12045;60.214;24.724;2023-03-31T09:10:16;4.50;;;2.30;;
23728;SDS011;12045;60.214;24.724;2023-03-31T09:13:41;5.83;;;2.40;;
23728;SDS011;12045;60.214;24.724;2023-03-31T09:16:28;3.23;;;2.60;;
23728;SDS011;12045;60.214;24.724;2023-03-31T09:19:29;8.00;;;2.70;;
23728;SDS011;12045;60.214;24.724;2023-03-31T09:22:33;7.50;;;2.37;;
23728;SDS011;12045;60.214;24.724;2023-03-31T09:25:33;6.00;;;2.67;;
23728;SDS011;12045;60.214;24.724;2023-03-31T09:28:21;6.10;;;2.57;;
23728;SDS011;12045;60.214;24.724;2023-03-31T09:31:22;5.27;;;2.63;;
23728;SDS011;12045;60.214;24.724;2023-03-31T09:37:00;4.37;;;2.67;;
23728;SDS011;12045;60.214;24.724;2023-03-31T09:39:33;4.63;;;1.90;;
23728;SDS011;12045;60.214;24.724;2023-03-31T09:42:04;2.43;;;1.93;;
23728;SDS011;12045;60.214;24.724;2023-03-31T09:44:37;4.40;;;2.07;;
23728;SDS011;12045;60.214;24.724;2023-03-31T10:00:58;4.83;;;1.90;;
23728;SDS011;12045;60.214;24.724;2023-03-31T10:03:33;5.20;;;1.97;;
23728;SDS011;12045;60.214;24.724;2023-03-31T10:06:33;3.70;;;2.00;;
23728;SDS011;12045;60.214;24.724;2023-03-31T10:09:29;1.85;;;1.70;;
23728;SDS011;12045;60.214;24.724;2023-03-31T10:15:22;4.50;;;1.67;;
23728;SDS011;12045;60.214;24.724;2023-03-31T10:17:58;2.95;;;1.60;;
23728;SDS011;12045;60.214;24.724;2023-03-31T10:20:38;4.47;;;1.70;;
23728;SDS011;12045;60.214;24.724;2023-03-31T10:23:32;2.65;;;1.70;;
23728;SDS011;12045;60.214;24.724;2023-03-31T10:26:26;2.93;;;1.80;;
23728;SDS011;12045;60.214;24.724;2023-03-31T10:28:57;4.87;;;1.63;;
23728;SDS011;12045;60.214;24.724;2023-03-31T10:31:34;3.80;;;1.80;;
23728;SDS011;12045;60.214;24.724;2023-03-31T10:34:08;7.40;;;2.13;;
23728;SDS011;12045;60.214;24.724;2023-03-31T10:36:49;4.53;;;1.67;;
23728;SDS011;12045;60.214;24.724;2023-03-31T10:39:18;3.67;;;2.00;;
23728;SDS011;12045;60.214;24.724;2023-03-31T10:41:49;2.53;;;1.50;;
23728;SDS011;12045;60.214;24.724;2023-03-31T10:44:32;3.40;;;1.67;;
23728;SDS011;12045;60.214;24.724;2023-03-31T10:50:35;5.15;;;1.77;;
23728;SDS011;12045;60.214;24.724;2023-03-31T10:53:11;2.13;;;1.50;;
23728;SDS011;12045;60.214;24.724;2023-03-31T11:04:26;3.33;;;1.50;;
23728;SDS011;12045;60.214;24.724;2023-03-31T11:27:11;2.20;;;1.60;;
23728;SDS011;12045;60.214;24.724;2023-03-31T11:30:04;1.90;;;1.60;;
23728;SDS011;12045;60.214;24.724;2023-03-31T11:43:33;7.03;;;1.63;;
23728;SDS011;12045;60.214;24.724;2023-03-31T11:48:58;1.38;;;1.17;;
23728;SDS011;12045;60.214;24.724;2023-03-31T11:56:55;3.00;;;1.45;;
23728;SDS011;12045;60.214;24.724;2023-03-31T11:59:25;2.72;;;1.67;;
23728;SDS011;12045;60.214;24.724;2023-03-31T12:02:09;1.73;;;1.40;;
23728;SDS011;12045;60.214;24.724;2023-03-31T12:04:57;3.40;;;1.50;;
23728;SDS011;12045;60.214;24.724;2023-03-31T12:07:30;1.83;;;1.35;;
23728;SDS011;12045;60.214;24.724;2023-03-31T12:15:53;3.90;;;1.60;;
23728;SDS011;12045;60.214;24.724;2023-03-31T12:21:33;1.50;;;1.40;;
23728;SDS011;12045;60.214;24.724;2023-03-31T12:24:02;1.35;;;1.05;;
23728;SDS011;12045;60.214;24.724;2023-03-31T12:26:38;3.35;;;1.70;;
23728;SDS011;12045;60.214;24.724;2023-03-31T12:29:21;1.17;;;1.08;;
23728;SDS011;12045;60.214;24.724;2023-03-31T12:32:01;6.10;;;1.60;;
23728;SDS011;12045;60.214;24.724;2023-03-31T12:34:33;2.45;;;1.50;;
23728;SDS011;12045;60.214;24.724;2023-03-31T12:42:47;1.45;;;1.10;;
23728;SDS011;12045;60.214;24.724;2023-03-31T12:45:38;1.45;;;1.30;;
23728;SDS011;12045;60.214;24.724;2023-03-31T12:57:06;4.82;;;1.40;;
23728;SDS011;12045;60.214;24.724;2023-03-31T12:59:42;1.17;;;1.08;;
23728;SDS011;12045;60.214;24.724;2023-03-31T13:04:42;1.48;;;1.38;;
23728;SDS011;12045;60.214;24.724;2023-03-31T13:09:58;4.67;;;1.60;;
23728;SDS011;12045;60.214;24.724;2023-03-31T13:12:59;2.20;;;1.30;;
23728;SDS011;12045;60.214;24.724;2023-03-31T13:15:55;2.28;;;1.40;;
23728;SDS011;12045;60.214;24.724;2023-03-31T13:18:23;5.43;;;1.40;;
23728;SDS011;12045;60.214;24.724;2023-03-31T13:20:58;2.97;;;1.30;;
23728;SDS011;12045;60.214;24.724;2023-03-31T13:23:27;1.42;;;1.10;;
23728;SDS011;12045;60.214;24.724;2023-03-31T13:25:59;1.92;;;1.40;;
23728;SDS011;12045;60.214;24.724;2023-03-31T13:28:38;2.78;;;1.40;;
23728;SDS011;12045;60.214;24.724;2023-03-31T13:36:17;2.15;;;1.33;;
23728;SDS011;12045;60.214;24.724;2023-03-31T13:52:46;1.97;;;1.40;;
23728;SDS011;12045;60.214;24.724;2023-03-31T14:07:01;3.28;;;0.90;;
23728;SDS011;12045;60.214;24.724;2023-03-31T14:09:39;1.30;;;1.20;;
23728;SDS011;12045;60.214;24.724;2023-03-31T14:12:25;2.70;;;1.43;;
23728;SDS011;12045;60.214;24.724;2023-03-31T14:15:04;4.47;;;1.25;;
23728;SDS011;12045;60.214;24.724;2023-03-31T14:17:34;1.77;;;1.13;;
23728;SDS011;12045;60.214;24.724;2023-03-31T14:31:38;2.20;;;1.27;;
23728;SDS011;12045;60.214;24.724;2023-03-31T14:35:20;2.03;;;1.40;;
23728;SDS011;12045;60.214;24.724;2023-03-31T14:37:24;5.43;;;3.03;;
23728;SDS011;12045;60.214;24.724;2023-03-31T14:39:54;1.88;;;1.27;;
23728;SDS011;12045;60.214;24.724;2023-03-31T14:42:24;1.92;;;1.55;;
23728;SDS011;12045;60.214;24.724;2023-03-31T14:44:56;2.55;;;1.20;;
23728;SDS011;12045;60.214;24.724;2023-03-31T14:47:27;4.10;;;1.35;;
23728;SDS011;12045;60.214;24.724;2023-03-31T14:50:04;1.33;;;1.20;;
23728;SDS011;12045;60.214;24.724;2023-03-31T14:52:39;0.82;;;0.80;;
23728;SDS011;12045;60.214;24.724;2023-03-31T14:55:16;2.00;;;0.80;;
23728;SDS011;12045;60.214;24.724;2023-03-31T14:57:52;2.53;;;1.07;;
23728;SDS011;12045;60.214;24.724;2023-03-31T15:00:26;1.63;;;1.20;;
23728;SDS011;12045;60.214;24.724;2023-03-31T15:02:56;4.40;;;1.25;;
23728;SDS011;12045;60.214;24.724;2023-03-31T15:05:27;1.77;;;1.10;;
23728;SDS011;12045;60.214;24.724;2023-03-31T15:07:57;1.50;;;0.98;;
23728;SDS011;12045;60.214;24.724;2023-03-31T15:10:32;1.80;;;1.17;;
23728;SDS011;12045;60.214;24.724;2023-03-31T15:13:11;4.28;;;1.38;;
23728;SDS011;12045;60.214;24.724;2023-03-31T15:15:42;3.05;;;1.20;;
23728;SDS011;12045;60.214;24.724;2023-03-31T15:18:12;2.35;;;1.50;;
23728;SDS011;12045;60.214;24.724;2023-03-31T15:20:42;1.73;;;1.10;;
23728;SDS011;12045;60.214;24.724;2023-03-31T15:25:57;2.33;;;1.20;;
23728;SDS011;12045;60.214;24.724;2023-03-31T15:28:48;0.85;;;0.80;;
23728;SDS011;12045;60.214;24.724;2023-03-31T15:31:20;2.65;;;1.10;;
23728;SDS011;12045;60.214;24.724;2023-03-31T15:33:48;1.30;;;1.03;;
23728;SDS011;12045;60.214;24.724;2023-03-31T15:36:16;2.42;;;1.20;;
23728;SDS011;12045;60.214;24.724;2023-03-31T15:38:51;4.80;;;1.37;;
23728;SDS011;12045;60.214;24.724;2023-03-31T15:41:23;1.80;;;1.30;;
23728;SDS011;12045;60.214;24.724;2023-03-31T15:47:07;1.87;;;1.20;;
23728;SDS011;12045;60.214;24.724;2023-03-31T15:49:45;2.67;;;1.40;;
23728;SDS011;12045;60.214;24.724;2023-03-31T15:52:34;4.93;;;1.17;;
23728;SDS011;12045;60.214;24.724;2023-03-31T15:55:22;4.10;;;1.30;;
23728;SDS011;12045;60.214;24.724;2023-03-31T15:57:59;2.50;;;0.97;;
23728;SDS011;12045;60.214;24.724;2023-03-31T16:03:34;1.37;;;1.10;;
23728;SDS011;12045;60.214;24.724;2023-03-31T16:06:05;4.50;;;1.10;;
23728;SDS011;12045;60.214;24.724;2023-03-31T16:08:47;1.93;;;1.10;;
23728;SDS011;12045;60.214;24.724;2023-03-31T16:11:21;3.47;;;1.80;;
23728;SDS011;12045;60.214;24.724;2023-03-31T16:13:59;3.10;;;1.30;;
23728;SDS011;12045;60.214;24.724;2023-03-31T16:16:35;3.50;;;1.43;;
23728;SDS011;12045;60.214;24.724;2023-03-31T16:19:05;4.07;;;1.60;;
23728;SDS011;12045;60.214;24.724;2023-03-31T16:21:41;4.03;;;1.40;;
23728;SDS011;12045;60.214;24.724;2023-03-31T16:24:10;1.90;;;1.20;;
23728;SDS011;12045;60.214;24.724;2023-03-31T16:26:37;1.27;;;0.90;;
23728;SDS011;12045;60.214;24.724;2023-03-31T16:29:05;4.03;;;1.00;;
23728;SDS011;12045;60.214;24.724;2023-03-31T16:31:34;1.40;;;1.00;;
23728;SDS011;12045;60.214;24.724;2023-03-31T16:34:06;3.83;;;1.10;;
23728;SDS011;12045;60.214;24.724;2023-03-31T16:36:35;3.83;;;1.10;;
23728;SDS011;12045;60.214;24.724;2023-03-31T16:39:04;5.10;;;1.63;;
23728;SDS011;12045;60.214;24.724;2023-03-31T16:41:33;1.90;;;1.20;;
23728;SDS011;12045;60.214;24.724;2023-03-31T16:44:02;4.23;;;1.60;;
23728;SDS011;12045;60.214;24.724;2023-03-31T16:46:32;3.53;;;1.30;;
23728;SDS011;12045;60.214;24.724;2023-03-31T16:48:59;3.43;;;1.23;;
23728;SDS011;12045;60.214;24.724;2023-03-31T16:51:27;1.77;;;1.00;;
23728;SDS011;12045;60.214;24.724;2023-03-31T16:53:54;5.83;;;1.30;;
23728;SDS011;12045;60.214;24.724;2023-03-31T16:56:25;4.80;;;1.27;;
23728;SDS011;12045;60.214;24.724;2023-03-31T16:58:52;3.97;;;1.20;;
23728;SDS011;12045;60.214;24.724;2023-03-31T17:01:20;1.90;;;1.10;;
23728;SDS011;12045;60.214;24.724;2023-03-31T17:03:49;3.80;;;1.30;;
23728;SDS011;12045;60.214;24.724;2023-03-31T17:06:17;2.37;;;1.40;;
23728;SDS011;12045;60.214;24.724;2023-03-31T17:08:45;6.90;;;1.40;;
23728;SDS011;12045;60.214;24.724;2023-03-31T17:11:13;2.23;;;1.40;;
23728;SDS011;12045;60.214;24.724;2023-03-31T17:13:40;3.33;;;1.30;;
23728;SDS011;12045;60.214;24.724;2023-03-31T17:16:09;1.60;;;1.27;;
23728;SDS011;12045;60.214;24.724;2023-03-31T17:18:40;4.73;;;1.50;;
23728;SDS011;12045;60.214;24.724;2023-03-31T17:21:09;10.37;;;3.17;;
23728;SDS011;12045;60.214;24.724;2023-03-31T17:23:39;11.30;;;2.97;;
23728;SDS011;12045;60.214;24.724;2023-03-31T17:26:07;4.47;;;2.07;;
23728;SDS011;12045;60.214;24.724;2023-03-31T17:28:36;3.67;;;2.10;;
23728;SDS011;12045;60.214;24.724;2023-03-31T17:31:11;9.23;;;3.93;;
23728;SDS011;12045;60.214;24.724;2023-03-31T17:33:39;18.20;;;10.33;;
23728;SDS011;12045;60.214;24.724;2023-03-31T17:36:07;27.63;;;17.00;;
23728;SDS011;12045;60.214;24.724;2023-03-31T17:38:36;12.53;;;8.50;;
23728;SDS011;12045;60.214;24.724;2023-03-31T17:41:06;4.20;;;3.40;;
23728;SDS011;12045;60.214;24.724;2023-03-31T17:43:36;5.33;;;3.00;;
23728;SDS011;12045;60.214;24.724;2023-03-31T17:46:04;4.70;;;2.03;;
23728;SDS011;12045;60.214;24.724;2023-03-31T17:48:36;4.27;;;1.73;;
23728;SDS011;12045;60.214;24.724;2023-03-31T17:51:06;6.47;;;1.97;;
23728;SDS011;12045;60.214;24.724;2023-03-31T17:53:35;6.73;;;2.03;;
23728;SDS011;12045;60.214;24.724;2023-03-31T17:56:03;3.20;;;1.80;;
23728;SDS011;12045;60.214;24.724;2023-03-31T17:58:31;2.13;;;1.60;;
23728;SDS011;12045;60.214;24.724;2023-03-31T18:00:59;3.37;;;1.30;;
23728;SDS011;12045;60.214;24.724;2023-03-31T18:03:27;3.20;;;1.87;;
23728;SDS011;12045;60.214;24.724;2023-03-31T18:05:56;3.83;;;1.60;;
23728;SDS011;12045;60.214;24.724;2023-03-31T18:08:28;6.67;;;1.77;;
23728;SDS011;12045;60.214;24.724;2023-03-31T18:10:55;5.90;;;2.33;;
23728;SDS011;12045;60.214;24.724;2023-03-31T18:13:23;8.90;;;2.27;;
23728;SDS011;12045;60.214;24.724;2023-03-31T18:15:50;6.90;;;2.07;;
23728;SDS011;12045;60.214;24.724;2023-03-31T18:18:19;5.20;;;2.13;;
23728;SDS011;12045;60.214;24.724;2023-03-31T18:20:47;6.73;;;2.20;;
23728;SDS011;12045;60.214;24.724;2023-03-31T18:23:15;6.97;;;2.53;;
23728;SDS011;12045;60.214;24.724;2023-03-31T18:25:42;11.83;;;2.30;;
23728;SDS011;12045;60.214;24.724;2023-03-31T18:28:14;6.03;;;2.73;;
23728;SDS011;12045;60.214;24.724;2023-03-31T18:30:42;8.97;;;3.10;;
23728;SDS011;12045;60.214;24.724;2023-03-31T18:33:10;9.23;;;2.90;;
23728;SDS011;12045;60.214;24.724;2023-03-31T18:35:38;6.90;;;2.63;;
23728;SDS011;12045;60.214;24.724;2023-03-31T18:38:06;4.70;;;2.40;;
23728;SDS011;12045;60.214;24.724;2023-03-31T18:40:48;6.40;;;2.70;;
23728;SDS011;12045;60.214;24.724;2023-03-31T18:43:16;6.97;;;2.57;;
23728;SDS011;12045;60.214;24.724;2023-03-31T18:45:48;9.87;;;2.93;;
23728;SDS011;12045;60.214;24.724;2023-03-31T18:48:19;9.27;;;2.90;;
23728;SDS011;12045;60.214;24.724;2023-03-31T18:50:49;5.80;;;2.40;;
23728;SDS011;12045;60.214;24.724;2023-03-31T18:53:20;7.03;;;2.50;;
23728;SDS011;12045;60.214;24.724;2023-03-31T18:55:49;10.97;;;2.50;;
23728;SDS011;12045;60.214;24.724;2023-03-31T18:58:19;10.07;;;4.97;;
23728;SDS011;12045;60.214;24.724;2023-03-31T19:00:47;10.17;;;4.60;;
23728;SDS011;12045;60.214;24.724;2023-03-31T19:03:14;8.53;;;3.03;;
23728;SDS011;12045;60.214;24.724;2023-03-31T19:05:42;6.40;;;2.40;;
23728;SDS011;12045;60.214;24.724;2023-03-31T19:08:10;6.77;;;2.50;;
23728;SDS011;12045;60.214;24.724;2023-03-31T19:10:38;6.67;;;2.10;;
23728;SDS011;12045;60.214;24.724;2023-03-31T19:13:05;6.27;;;2.43;;
23728;SDS011;12045;60.214;24.724;2023-03-31T19:15:34;4.77;;;2.70;;
23728;SDS011;12045;60.214;24.724;2023-03-31T19:18:03;9.50;;;2.37;;
23728;SDS011;12045;60.214;24.724;2023-03-31T19:20:31;3.13;;;2.13;;
23728;SDS011;12045;60.214;24.724;2023-03-31T19:22:58;9.13;;;2.40;;
23728;SDS011;12045;60.214;24.724;2023-03-31T19:25:25;5.17;;;2.37;;
23728;SDS011;12045;60.214;24.724;2023-03-31T19:27:54;9.23;;;2.47;;
23728;SDS011;12045;60.214;24.724;2023-03-31T19:30:22;9.10;;;2.40;;
23728;SDS011;12045;60.214;24.724;2023-03-31T19:32:50;6.03;;;2.30;;
23728;SDS011;12045;60.214;24.724;2023-03-31T19:35:19;3.73;;;2.20;;
23728;SDS011;12045;60.214;24.724;2023-03-31T19:37:47;8.30;;;2.20;;
23728;SDS011;12045;60.214;24.724;2023-03-31T19:40:16;7.50;;;2.30;;
23728;SDS011;12045;60.214;24.724;2023-03-31T19:42:44;3.87;;;2.13;;
23728;SDS011;12045;60.214;24.724;2023-03-31T19:45:12;7.30;;;2.20;;
23728;SDS011;12045;60.214;24.724;2023-03-31T19:47:40;5.30;;;2.17;;
23728;SDS011;12045;60.214;24.724;2023-03-31T19:50:07;4.47;;;2.57;;
23728;SDS011;12045;60.214;24.724;2023-03-31T19:52:35;9.17;;;4.13;;
23728;SDS011;12045;60.214;24.724;2023-03-31T19:55:03;9.47;;;2.67;;